createdAt,value
2022-08-07T00:01:43.766Z,100158.59
2022-08-07T00:04:11.435Z,100153.58
2022-08-07T00:06:51.731Z,100149.34
2022-08-07T00:09:22.850Z,100149.25
2022-08-07T00:11:58.897Z,100157.34
2022-08-07T00:14:31.788Z,100150.63
2022-08-07T00:17:06.789Z,100148.61
2022-08-07T00:20:00.902Z,100146.83
2022-08-07T00:22:14.400Z,100147.05
2022-08-07T00:24:48.624Z,100150.55
2022-08-07T00:27:22.610Z,100153.11
2022-08-07T00:29:54.855Z,100152.89
2022-08-07T00:32:28.252Z,100156.73
2022-08-07T00:35:01.230Z,100157.38
2022-08-07T00:37:47.607Z,100155.35
2022-08-07T00:40:11.733Z,100152.50
2022-08-07T00:42:46.872Z,100164.43
2022-08-07T00:45:22.014Z,100165.81
2022-08-07T00:48:10.072Z,100162.92
2022-08-07T00:50:51.383Z,100162.52
2022-08-07T00:53:04.731Z,100159.11
2022-08-07T00:56:02.683Z,100166.43
2022-08-07T00:58:15.121Z,100155.91
2022-08-07T01:00:53.601Z,100166.13
2022-08-07T01:03:54.873Z,100160.80
2022-08-07T01:05:56.985Z,100172.95
2022-08-07T01:08:29.368Z,100172.95
2022-08-07T01:12:04.821Z,100175.72
2022-08-07T01:13:37.949Z,100171.66
2022-08-07T01:16:12.175Z,100174.89
2022-08-07T01:18:47.329Z,100173.81
2022-08-07T01:21:26.032Z,100176.89
2022-08-07T01:24:02.282Z,100179.34
2022-08-07T01:26:35.747Z,100169.02
2022-08-07T01:29:10.183Z,100171.35
2022-08-07T01:31:48.244Z,100177.10
2022-08-07T01:34:19.554Z,100174.33
2022-08-07T01:36:57.722Z,100174.00
2022-08-07T01:39:40.360Z,100168.80
2022-08-07T01:42:37.994Z,100171.23
2022-08-07T01:44:44.578Z,100172.95
2022-08-07T01:48:19.337Z,100177.31
2022-08-07T01:49:54.664Z,100183.37
2022-08-07T01:52:29.046Z,100184.45
2022-08-07T01:55:01.989Z,100180.73
2022-08-07T01:58:01.358Z,100186.57
2022-08-07T02:00:15.680Z,100182.11
2022-08-07T02:03:19.381Z,100184.23
2022-08-07T02:05:59.441Z,100181.16
2022-08-07T02:08:25.645Z,100185.73
2022-08-07T02:10:59.794Z,100178.42
2022-08-07T02:13:57.894Z,100179.67
2022-08-07T02:16:09.060Z,100185.42
2022-08-07T02:18:47.273Z,100181.27
2022-08-07T02:21:19.053Z,100180.96
2022-08-07T02:23:51.774Z,100179.80
2022-08-07T02:26:34.431Z,100178.41
2022-08-07T02:29:00.083Z,100181.83
2022-08-07T02:31:32.918Z,100174.56
2022-08-07T02:34:11.636Z,100177.03
2022-08-07T02:36:43.449Z,100173.61
2022-08-07T02:39:43.890Z,100177.77
2022-08-07T02:41:55.146Z,100181.39
2022-08-07T02:44:34.671Z,100183.08
2022-08-07T02:47:03.717Z,100181.83
2022-08-07T02:49:56.315Z,100183.52
2022-08-07T02:52:13.010Z,100183.52
2022-08-07T02:54:46.802Z,100186.72
2022-08-07T02:57:28.631Z,100187.02
2022-08-07T03:00:01.262Z,100188.93
2022-08-07T03:02:36.215Z,100192.77
2022-08-07T03:05:12.770Z,100194.46
2022-08-07T03:08:07.166Z,100187.23
2022-08-07T03:10:23.734Z,100193.39
2022-08-07T03:12:57.048Z,100192.95
2022-08-07T03:15:55.626Z,100193.61
2022-08-07T03:18:06.803Z,100188.16
2022-08-07T03:20:40.585Z,100194.88
2022-08-07T03:23:18.921Z,100190.59
2022-08-07T03:25:58.187Z,100189.77
2022-08-07T03:28:38.344Z,100192.76
2022-08-07T03:30:59.874Z,100197.43
2022-08-07T03:33:40.154Z,100201.45
2022-08-07T03:36:09.711Z,100198.05
2022-08-07T03:38:43.782Z,100207.39
2022-08-07T03:41:17.646Z,100206.83
2022-08-07T03:43:57.205Z,100201.89
2022-08-07T03:46:25.533Z,100201.89
2022-08-07T03:49:02.963Z,100204.70
2022-08-07T03:51:47.629Z,100205.21
2022-08-07T03:54:36.485Z,100211.91
2022-08-07T03:57:03.589Z,100214.44
2022-08-07T03:59:21.016Z,100214.51
2022-08-07T04:01:55.623Z,100215.54
2022-08-07T04:04:29.329Z,100215.54
2022-08-07T04:07:16.599Z,100223.69
2022-08-07T04:09:45.307Z,100219.50
2022-08-07T04:12:28.906Z,100225.06
2022-08-07T04:15:02.521Z,100226.31
2022-08-07T04:18:31.043Z,100225.83
2022-08-07T04:20:13.600Z,100223.06
2022-08-07T04:22:53.482Z,100227.34
2022-08-07T04:25:22.419Z,100229.91
2022-08-07T04:28:00.322Z,100218.20
2022-08-07T04:30:43.691Z,100227.27
2022-08-07T04:33:09.740Z,100221.20
2022-08-07T04:35:50.127Z,100218.74
2022-08-07T04:38:26.683Z,100216.61
2022-08-07T04:40:59.495Z,100217.84
2022-08-07T04:44:12.607Z,100222.91
2022-08-07T04:46:34.852Z,100218.80
2022-08-07T04:49:38.446Z,100215.19
2022-08-07T04:52:18.268Z,100219.34
2022-08-07T04:55:02.616Z,100227.05
2022-08-07T04:58:12.866Z,100223.96
2022-08-07T05:00:42.314Z,100228.88
2022-08-07T05:03:59.799Z,100228.77
2022-08-07T05:06:19.520Z,100229.84
2022-08-07T05:09:45.859Z,100238.81
2022-08-07T05:12:04.755Z,100236.27
2022-08-07T05:14:54.898Z,100228.80
2022-08-07T05:17:52.455Z,100240.95
2022-08-07T05:19:55.457Z,100234.23
2022-08-07T05:22:28.345Z,100234.62
2022-08-07T05:25:02.340Z,100245.30
2022-08-07T05:28:15.939Z,100244.85
2022-08-07T05:30:12.491Z,100243.48
2022-08-07T05:32:47.794Z,100245.74
2022-08-07T05:35:33.149Z,100251.59
2022-08-07T05:38:08.599Z,100246.98
2022-08-07T05:40:31.624Z,100249.97
2022-08-07T05:43:06.682Z,100248.03
2022-08-07T05:45:47.482Z,100247.65
2022-08-07T05:48:17.683Z,100250.86
2022-08-07T05:50:52.064Z,100247.20
2022-08-07T05:54:13.457Z,100254.75
2022-08-07T05:56:03.018Z,100253.25
2022-08-07T05:58:36.813Z,100250.92
2022-08-07T06:01:10.796Z,100254.90
2022-08-07T06:03:56.868Z,100261.90
2022-08-07T06:06:24.564Z,100260.22
2022-08-07T06:08:59.942Z,100260.59
2022-08-07T06:11:54.634Z,100259.53
2022-08-07T06:14:30.272Z,100259.28
2022-08-07T06:17:07.067Z,100260.60
2022-08-07T06:19:47.904Z,100269.45
2022-08-07T06:22:23.272Z,100270.84
2022-08-07T06:24:58.349Z,100272.73
2022-08-07T06:27:43.946Z,100269.86
2022-08-07T06:30:02.682Z,100269.55
2022-08-07T06:32:35.364Z,100266.48
2022-08-07T06:35:19.831Z,100264.72
2022-08-07T06:37:55.253Z,100266.49
2022-08-07T06:40:34.394Z,100264.95
2022-08-07T06:43:04.983Z,100261.13
2022-08-07T06:45:47.173Z,100264.47
2022-08-07T06:48:25.041Z,100265.34
2022-08-07T06:50:56.047Z,100269.37
2022-08-07T06:55:27.736Z,100259.73
2022-08-07T06:56:03.483Z,100264.60
2022-08-07T06:58:40.288Z,100267.73
2022-08-07T07:01:17.663Z,100261.14
2022-08-07T07:04:07.028Z,100266.62
2022-08-07T07:06:34.712Z,100272.05
2022-08-07T07:09:30.889Z,100264.80
2022-08-07T07:12:33.395Z,100265.53
2022-08-07T07:15:24.104Z,100270.34
2022-08-07T07:18:09.114Z,100269.24
2022-08-07T07:20:50.457Z,100265.38
2022-08-07T07:24:08.641Z,100269.22
2022-08-07T07:26:34.613Z,100276.31
2022-08-07T07:29:38.896Z,100275.95
2022-08-07T07:31:39.764Z,100277.66
2022-08-07T07:34:07.838Z,100278.37
2022-08-07T07:36:41.605Z,100287.72
2022-08-07T07:39:15.800Z,100285.27
2022-08-07T07:42:13.710Z,100279.13
2022-08-07T07:44:26.859Z,100286.47
2022-08-07T07:47:14.053Z,100285.34
2022-08-07T07:50:33.579Z,100285.43
2022-08-07T07:52:09.133Z,100279.00
2022-08-07T07:54:50.445Z,100278.14
2022-08-07T07:57:21.577Z,100277.60
2022-08-07T07:59:55.835Z,100285.83
2022-08-07T08:02:34.231Z,100277.20
2022-08-07T08:05:14.202Z,100284.55
2022-08-07T08:07:59.552Z,100287.71
2022-08-07T08:10:38.279Z,100292.50
2022-08-07T08:12:58.989Z,100293.38
2022-08-07T08:15:26.181Z,100288.61
2022-08-07T08:17:59.086Z,100286.95
2022-08-07T08:20:34.733Z,100293.39
2022-08-07T08:23:28.174Z,100286.94
2022-08-07T08:26:20.660Z,100282.94
2022-08-07T08:28:56.142Z,100285.20
2022-08-07T08:32:04.850Z,100278.16
2022-08-07T08:34:08.341Z,100280.10
2022-08-07T08:36:41.905Z,100273.87
2022-08-07T08:39:17.726Z,100276.09
2022-08-07T08:42:20.557Z,100268.23
2022-08-07T08:45:16.213Z,100272.15
2022-08-07T08:48:32.357Z,100272.98
2022-08-07T08:51:49.566Z,100274.92
2022-08-07T08:54:37.121Z,100267.90
2022-08-07T08:57:14.369Z,100268.45
2022-08-07T08:59:57.203Z,100256.93
2022-08-07T09:02:52.348Z,100259.73
2022-08-07T09:05:59.502Z,100252.11
2022-08-07T09:09:03.159Z,100244.95
2022-08-07T09:12:19.871Z,100234.20
2022-08-07T09:14:58.869Z,100227.35
2022-08-07T09:18:15.815Z,100226.95
2022-08-07T09:22:09.948Z,100227.48
2022-08-07T09:24:58.869Z,100238.30
2022-08-07T09:27:54.621Z,100244.34
2022-08-07T09:30:10.584Z,100249.00
2022-08-07T09:33:41.300Z,100251.88
2022-08-07T09:36:09.667Z,100247.08
2022-08-07T09:39:53.707Z,100257.30
2022-08-07T09:42:23.193Z,100246.27
2022-08-07T09:47:49.622Z,100231.61
2022-08-07T09:48:01.824Z,100228.95
2022-08-07T09:50:39.858Z,100223.61
2022-08-07T09:53:13.702Z,100226.84
2022-08-07T09:56:37.593Z,100228.16
2022-08-07T10:00:00.645Z,100226.14
2022-08-07T10:03:08.150Z,100231.72
2022-08-07T10:06:36.216Z,100248.41
2022-08-07T10:09:59.146Z,100249.50
2022-08-07T10:12:53.885Z,100241.00
2022-08-07T10:15:46.086Z,100233.09
2022-08-07T10:19:03.727Z,100233.37
2022-08-07T10:22:24.876Z,100232.45
2022-08-07T10:25:06.966Z,100220.60
2022-08-07T10:27:56.106Z,100212.11
2022-08-07T10:30:45.739Z,100215.33
2022-08-07T10:34:05.784Z,100207.08
2022-08-07T10:36:51.159Z,100207.16
2022-08-07T10:40:03.441Z,100221.23
2022-08-07T10:42:49.977Z,100219.30
2022-08-07T10:45:45.138Z,100214.28
2022-08-07T10:48:48.439Z,100211.72
2022-08-07T10:52:01.815Z,100222.48
2022-08-07T10:54:26.338Z,100212.06
2022-08-07T10:57:34.810Z,100210.37
2022-08-07T11:00:39.226Z,100212.53
2022-08-07T11:03:18.289Z,100216.73
2022-08-07T11:06:21.897Z,100216.47
2022-08-07T11:09:11.258Z,100216.50
2022-08-07T11:12:10.783Z,100219.02
2022-08-07T11:15:02.103Z,100214.73
2022-08-07T11:17:49.541Z,100214.89
2022-08-07T11:20:27.812Z,100215.91
2022-08-07T11:23:20.563Z,100192.95
2022-08-07T11:26:20.832Z,100177.75
2022-08-07T11:29:41.948Z,100154.33
2022-08-07T11:32:01.608Z,100158.30
2022-08-07T11:35:00.646Z,100176.06
2022-08-07T11:38:17.517Z,100185.77
2022-08-07T11:40:59.598Z,100194.29
2022-08-07T11:44:11.036Z,100194.72
2022-08-07T11:46:51.068Z,100211.57
2022-08-07T11:50:25.488Z,100216.95
2022-08-07T11:52:29.338Z,100202.73
2022-08-07T11:56:13.969Z,100191.66
2022-08-07T11:58:49.711Z,100190.45
2022-08-07T12:02:05.025Z,100189.52
2022-08-07T12:04:58.626Z,100205.80
2022-08-07T12:07:42.188Z,100236.45
2022-08-07T12:10:34.074Z,100253.56
2022-08-07T12:13:35.589Z,100260.10
2022-08-07T12:16:06.779Z,100241.13
2022-08-07T12:18:58.250Z,100231.41
2022-08-07T12:22:39.233Z,100237.42
2022-08-07T12:26:02.893Z,100262.52
2022-08-07T12:28:08.624Z,100268.75
2022-08-07T12:30:36.921Z,100269.88
2022-08-07T12:33:28.041Z,100262.06
2022-08-07T12:35:58.026Z,100270.84
2022-08-07T12:38:42.991Z,100277.37
2022-08-07T12:41:05.553Z,100274.48
2022-08-07T12:44:04.085Z,100270.11
2022-08-07T12:46:38.853Z,100268.27
2022-08-07T12:50:02.580Z,100262.42
2022-08-07T12:52:53.085Z,100259.73
2022-08-07T12:55:41.320Z,100256.10
2022-08-07T12:58:17.041Z,100257.83
2022-08-07T13:01:03.480Z,100263.67
2022-08-07T13:04:09.799Z,100263.67
2022-08-07T13:07:07.934Z,100267.97
2022-08-07T13:10:37.797Z,100266.83
2022-08-07T13:13:46.914Z,100271.42
2022-08-07T13:16:51.191Z,100285.05
2022-08-07T13:19:51.438Z,100299.42
2022-08-07T13:22:56.142Z,100292.27
2022-08-07T13:26:00.851Z,100293.95
2022-08-07T13:28:39.071Z,100295.42
2022-08-07T13:31:24.382Z,100305.70
2022-08-07T13:34:34.325Z,100305.70
2022-08-07T13:37:10.535Z,100309.78
2022-08-07T13:43:15.085Z,100306.86
2022-08-07T13:46:10.765Z,100315.52
2022-08-07T13:48:34.149Z,100315.63
2022-08-07T13:51:01.957Z,100321.41
2022-08-07T13:54:01.835Z,100330.56
2022-08-07T13:56:19.438Z,100334.50
2022-08-07T13:59:05.622Z,100339.43
2022-08-07T14:01:51.628Z,100342.30
2022-08-07T14:04:24.620Z,100354.16
2022-08-07T14:06:58.723Z,100361.12
2022-08-07T14:10:12.593Z,100368.78
2022-08-07T14:12:31.079Z,100382.08
2022-08-07T14:15:10.522Z,100381.12
2022-08-07T14:18:27.061Z,100391.49
2022-08-07T14:20:40.570Z,100392.87
2022-08-07T14:23:59.483Z,100397.69
2022-08-07T14:26:09.644Z,100399.45
2022-08-07T14:28:58.947Z,100402.09
2022-08-07T14:31:20.500Z,100392.95
2022-08-07T14:33:55.337Z,100392.95
2022-08-07T14:36:31.499Z,100397.52
2022-08-07T14:39:06.535Z,100399.32
2022-08-07T14:42:18.582Z,100404.75
2022-08-07T14:44:15.905Z,100403.27
2022-08-07T14:46:51.579Z,100410.97
2022-08-07T14:49:57.739Z,100412.03
2022-08-07T14:52:10.521Z,100405.45
2022-08-07T14:54:43.379Z,100415.03
2022-08-07T14:57:19.684Z,100416.73
2022-08-07T15:00:04.396Z,100415.88
2022-08-07T15:05:20.482Z,100420.88
2022-08-07T15:13:06.233Z,100423.55
2022-08-07T15:15:41.442Z,100422.06
2022-08-07T15:18:34.114Z,100424.20
2022-08-07T15:25:04.048Z,100427.20
2022-08-07T15:26:21.117Z,100428.23
2022-08-07T15:28:55.474Z,100430.70
2022-08-07T15:32:01.779Z,100432.60
2022-08-07T15:34:02.149Z,100440.70
2022-08-07T15:37:03.061Z,100441.47
2022-08-07T15:39:12.672Z,100446.66
2022-08-07T15:42:44.206Z,100447.95
2022-08-07T15:44:52.156Z,100452.73
2022-08-07T15:50:05.739Z,100452.53
2022-08-07T15:52:36.755Z,100446.25
2022-08-07T15:55:12.525Z,100439.75
2022-08-07T15:57:49.574Z,100439.75
2022-08-07T16:00:33.678Z,100437.50
2022-08-07T16:03:00.003Z,100443.89
2022-08-07T16:05:33.441Z,100437.39
2022-08-07T16:08:32.107Z,100443.69
2022-08-07T16:10:50.940Z,100443.87
2022-08-07T16:13:59.077Z,100453.03
2022-08-07T16:16:47.557Z,100450.27
2022-08-07T16:19:42.860Z,100460.48
2022-08-07T16:22:36.414Z,100458.16
2022-08-07T16:25:52.612Z,100464.73
2022-08-07T16:30:09.135Z,100462.31
2022-08-07T16:31:52.039Z,100461.59
2022-08-07T16:34:37.207Z,100459.13
2022-08-07T16:38:03.654Z,100461.34
2022-08-07T16:40:31.935Z,100462.32
2022-08-07T16:44:04.232Z,100474.45
2022-08-07T16:47:07.821Z,100472.00
2022-08-07T16:50:20.147Z,100481.80
2022-08-07T16:52:51.328Z,100494.44
2022-08-07T16:55:08.460Z,100494.09
2022-08-07T16:58:01.558Z,100489.95
2022-08-07T17:00:29.436Z,100495.48
2022-08-07T17:03:06.090Z,100489.63
2022-08-07T17:06:28.471Z,100484.10
2022-08-07T17:09:09.914Z,100484.62
2022-08-07T17:12:03.879Z,100477.91
2022-08-07T17:14:28.052Z,100477.38
2022-08-07T17:17:03.501Z,100478.11
2022-08-07T17:20:14.398Z,100480.87
2022-08-07T17:23:08.841Z,100481.64
2022-08-07T17:25:53.983Z,100482.61
2022-08-07T17:28:40.235Z,100480.46
2022-08-07T17:31:19.323Z,100474.72
2022-08-07T17:34:35.027Z,100470.02
2022-08-07T17:37:14.401Z,100477.59
2022-08-07T17:40:10.735Z,100469.61
2022-08-07T17:43:15.036Z,100465.80
2022-08-07T17:45:44.107Z,100473.48
2022-08-07T17:52:00.472Z,100469.12
2022-08-07T17:57:58.232Z,100479.02
2022-08-07T18:00:32.989Z,100482.09
2022-08-07T18:03:27.394Z,100481.13
2022-08-07T18:06:16.633Z,100480.92
2022-08-07T18:09:05.905Z,100479.89
2022-08-07T18:12:16.091Z,100482.23
2022-08-07T18:14:57.864Z,100484.97
2022-08-07T18:18:46.770Z,100483.65
2022-08-07T18:21:09.922Z,100482.81
2022-08-07T18:23:42.215Z,100477.70
2022-08-07T18:26:05.721Z,100488.35
2022-08-07T18:30:05.654Z,100484.41
2022-08-07T18:32:16.768Z,100482.71
2022-08-07T18:35:16.762Z,100493.88
2022-08-07T18:38:58.250Z,100492.16
2022-08-07T18:41:46.005Z,100489.58
2022-08-07T18:45:44.243Z,100499.16
2022-08-07T18:48:01.306Z,100506.59
2022-08-07T18:51:00.302Z,100514.68
2022-08-07T18:53:55.907Z,100519.23
2022-08-07T18:57:29.456Z,100526.25
2022-08-07T19:00:33.104Z,100528.13
2022-08-07T19:03:35.549Z,100529.45
2022-08-07T19:06:05.032Z,100532.00
2022-08-07T19:09:09.253Z,100529.95
2022-08-07T19:12:03.906Z,100528.05
2022-08-07T19:14:38.581Z,100531.25
2022-08-07T19:18:03.982Z,100537.95
2022-08-07T19:22:50.441Z,100536.78
2022-08-07T19:26:24.351Z,100533.38
2022-08-07T19:28:57.108Z,100532.00
2022-08-07T19:31:03.256Z,100531.74
2022-08-07T19:33:15.297Z,100527.34
2022-08-07T19:35:49.435Z,100534.97
2022-08-07T19:38:21.899Z,100535.05
2022-08-07T19:41:00.524Z,100541.30
2022-08-07T19:43:45.129Z,100540.98
2022-08-07T19:46:10.680Z,100540.67
2022-08-07T19:48:54.063Z,100546.05
2022-08-07T19:51:50.969Z,100551.55
2022-08-07T19:54:31.043Z,100561.15
2022-08-07T19:57:51.231Z,100564.86
2022-08-07T19:59:41.406Z,100561.83
2022-08-07T20:02:03.665Z,100557.50
2022-08-07T20:04:41.671Z,100561.09
2022-08-07T20:07:23.880Z,100564.64
2022-08-07T20:10:38.024Z,100571.63
2022-08-07T20:12:34.454Z,100567.67
2022-08-07T20:15:03.722Z,100567.00
2022-08-07T20:17:38.521Z,100560.69
2022-08-07T20:20:13.561Z,100567.00
2022-08-07T20:22:47.109Z,100563.96
2022-08-07T20:25:22.365Z,100568.17
2022-08-07T20:27:58.690Z,100568.61
2022-08-07T20:30:37.158Z,100567.84
2022-08-07T20:33:36.407Z,100566.98
2022-08-07T20:35:51.923Z,100565.40
2022-08-07T20:38:24.403Z,100561.26
2022-08-07T20:41:01.697Z,100566.59
2022-08-07T20:43:36.193Z,100575.11
2022-08-07T20:46:27.399Z,100580.63
2022-08-07T20:49:54.599Z,100583.27
2022-08-07T20:51:20.035Z,100590.76
2022-08-07T20:54:04.482Z,100586.42
2022-08-07T20:56:32.286Z,100581.77
2022-08-07T21:00:04.242Z,100586.03
2022-08-07T21:01:45.618Z,100580.44
2022-08-07T21:04:22.779Z,100579.25
2022-08-07T21:06:58.218Z,100581.70
2022-08-07T21:09:52.699Z,100576.17
2022-08-07T21:12:15.187Z,100571.84
2022-08-07T21:14:48.428Z,100577.48
2022-08-07T21:18:17.525Z,100576.78
2022-08-07T21:20:04.424Z,100572.56
2022-08-07T21:22:28.953Z,100572.63
2022-08-07T21:25:42.587Z,100573.80
2022-08-07T21:28:48.705Z,100578.02
2022-08-07T21:31:16.031Z,100576.42
2022-08-07T21:34:18.175Z,100578.25
2022-08-07T21:36:59.388Z,100578.64
2022-08-07T21:39:54.990Z,100581.41
2022-08-07T21:43:06.515Z,100586.41
2022-08-07T21:46:10.079Z,100581.86
2022-08-07T21:48:34.575Z,100574.67
2022-08-07T21:51:54.568Z,100577.97
2022-08-07T21:54:46.237Z,100568.44
2022-08-07T21:58:03.358Z,100571.42
2022-08-07T22:00:36.163Z,100566.64
2022-08-07T22:03:40.630Z,100565.38
2022-08-07T22:06:30.796Z,100563.30
2022-08-07T22:09:07.098Z,100563.68
2022-08-07T22:12:04.801Z,100558.74
2022-08-07T22:14:23.768Z,100562.95
2022-08-07T22:17:02.511Z,100546.17
2022-08-07T22:19:41.621Z,100544.00
2022-08-07T22:22:29.042Z,100547.43
2022-08-07T22:25:13.247Z,100540.86
2022-08-07T22:28:26.832Z,100546.05
2022-08-07T22:31:00.810Z,100542.94
2022-08-07T22:33:53.638Z,100545.06
2022-08-07T22:36:58.530Z,100549.58
2022-08-07T22:39:55.377Z,100545.13
2022-08-07T22:42:30.922Z,100542.78
2022-08-07T22:46:04.115Z,100544.10
2022-08-07T22:48:54.647Z,100546.73
2022-08-07T22:51:23.378Z,100545.35
2022-08-07T22:54:19.675Z,100544.70
2022-08-07T22:57:07.811Z,100547.17
2022-08-07T23:00:09.079Z,100561.63
2022-08-07T23:03:09.282Z,100561.95
2022-08-07T23:06:07.536Z,100561.44
2022-08-07T23:08:31.545Z,100556.41
2022-08-07T23:11:17.668Z,100561.22
2022-08-07T23:14:34.184Z,100560.84
2022-08-07T23:17:54.797Z,100557.02
2022-08-07T23:21:16.169Z,100559.14
2022-08-07T23:24:05.358Z,100558.14
2022-08-07T23:27:16.211Z,100553.04
2022-08-07T23:30:37.642Z,100558.07
2022-08-07T23:34:35.023Z,100553.80
2022-08-07T23:36:02.986Z,100556.20
2022-08-07T23:39:08.545Z,100565.86
2022-08-07T23:42:05.107Z,100572.37
2022-08-07T23:44:52.606Z,100573.36
2022-08-07T23:48:07.732Z,100575.80
2022-08-07T23:50:55.808Z,100576.48
2022-08-07T23:54:19.683Z,100578.82
2022-08-07T23:57:12.163Z,100581.64
